Terminal Aerodrome Forecast
Issued by NWS Greer, SC

Home | Current Version | Previous Version | Text Only | Print | Product List | Glossary On
Versions: 1 2 3 4 5 6 7 8 9 10 11 12 13 14 15 16
000
FTUS42 KGSP 051502 AAB
TAFGSP
TAF AMD
KGSP 051502Z 0515/0612 01004KT P6SM FEW017 OVC024
      TEMPO 0515/0516 SCT013 BKN017
     FM051600 05010KT P6SM BKN030
     FM052100 04008KT P6SM BKN035
      TEMPO 0522/0602 4SM TSRA BKN030CB
     FM060200 05008KT P6SM BKN050
     FM060800 03006KT P6SM OVC025
     FM061000 03006KT P6SM OVC015=

USA.gov is the U.S. government's official web portal to all federal, state and local government web resources and services.